createdAt,value
2022-08-25T00:00:28.195Z,3.30
2022-08-25T00:03:01.008Z,3.45
2022-08-25T00:05:33.956Z,3.15
2022-08-25T00:08:06.359Z,3.15
2022-08-25T00:10:40.361Z,3.30
2022-08-25T00:13:11.515Z,3.15
2022-08-25T00:15:41.757Z,3.10
2022-08-25T00:18:19.877Z,3.47
2022-08-25T00:20:50.782Z,3.15
2022-08-25T00:23:21.357Z,3.10
2022-08-25T00:25:52.066Z,3.17
2022-08-25T00:28:22.444Z,3.22
2022-08-25T00:30:53.025Z,3.15
2022-08-25T00:33:26.959Z,3.13
2022-08-25T00:35:57.217Z,3.50
2022-08-25T00:38:27.863Z,3.15
2022-08-25T00:41:11.056Z,3.15
2022-08-25T00:43:52.060Z,3.13
2022-08-25T00:46:26.890Z,3.03
2022-08-25T00:49:06.830Z,3.42
2022-08-25T00:51:45.703Z,3.33
2022-08-25T00:54:23.324Z,3.38
2022-08-25T00:56:54.839Z,3.58
2022-08-25T00:59:27.247Z,3.00
2022-08-25T01:01:59.003Z,3.80
2022-08-25T01:04:32.776Z,3.35
2022-08-25T01:07:05.239Z,3.60
2022-08-25T01:09:36.802Z,3.25
2022-08-25T01:12:08.975Z,3.08
2022-08-25T01:14:41.180Z,3.53
2022-08-25T01:17:13.856Z,3.10
2022-08-25T01:19:46.845Z,3.60
2022-08-25T01:22:20.985Z,3.58
2022-08-25T01:25:02.808Z,3.42
2022-08-25T01:27:33.323Z,3.72
2022-08-25T01:30:03.516Z,3.15
2022-08-25T01:32:37.511Z,3.10
2022-08-25T01:35:16.794Z,2.95
2022-08-25T01:37:49.865Z,3.25
2022-08-25T01:40:20.579Z,3.30
2022-08-25T01:43:17.193Z,3.20
2022-08-25T01:45:51.376Z,3.17
2022-08-25T01:48:22.318Z,3.40
2022-08-25T01:50:52.599Z,3.80
2022-08-25T01:53:33.391Z,3.40
2022-08-25T01:56:12.196Z,3.30
2022-08-25T01:58:47.808Z,3.53
2022-08-25T02:01:23.772Z,3.53
2022-08-25T02:03:57.667Z,3.47
2022-08-25T02:06:36.899Z,3.55
2022-08-25T02:09:16.115Z,3.28
2022-08-25T02:11:50.021Z,3.30
2022-08-25T02:14:23.235Z,3.88
2022-08-25T02:16:56.537Z,3.45
2022-08-25T02:19:30.967Z,3.20
2022-08-25T02:22:05.070Z,3.85
2022-08-25T02:24:37.938Z,3.20
2022-08-25T02:27:10.209Z,3.50
2022-08-25T02:29:40.688Z,3.45
2022-08-25T02:32:12.216Z,3.72
2022-08-25T02:34:42.725Z,3.20
2022-08-25T02:37:14.198Z,3.20
2022-08-25T02:39:47.025Z,3.38
2022-08-25T02:42:17.493Z,3.33
2022-08-25T02:44:48.197Z,3.53
2022-08-25T02:47:18.379Z,3.75
2022-08-25T02:49:55.927Z,3.85
2022-08-25T02:52:26.269Z,3.80
2022-08-25T02:54:59.358Z,3.70
2022-08-25T02:57:29.572Z,4.25
2022-08-25T02:59:59.863Z,3.92
2022-08-25T03:02:30.765Z,3.72
2022-08-25T03:05:01.161Z,4.10
2022-08-25T03:07:31.719Z,3.53
2022-08-25T03:10:16.059Z,3.88
2022-08-25T03:12:46.518Z,4.07
2022-08-25T03:15:19.732Z,3.75
2022-08-25T03:17:52.274Z,3.63
2022-08-25T03:20:24.270Z,3.90
2022-08-25T03:22:55.042Z,3.72
2022-08-25T03:25:40.283Z,3.63
2022-08-25T03:28:19.287Z,3.70
2022-08-25T03:30:53.374Z,3.75
2022-08-25T03:33:26.176Z,3.65
2022-08-25T03:35:56.475Z,3.55
2022-08-25T03:38:28.163Z,4.07
2022-08-25T03:41:02.115Z,3.80
2022-08-25T03:43:32.284Z,3.47
2022-08-25T03:46:02.508Z,3.20
2022-08-25T03:48:32.831Z,3.08
2022-08-25T03:51:03.295Z,3.30
2022-08-25T03:53:33.573Z,3.78
2022-08-25T03:56:06.759Z,3.55
2022-08-25T03:58:37.648Z,3.60
2022-08-25T04:01:07.885Z,3.25
2022-08-25T04:03:38.143Z,3.47
2022-08-25T04:06:10.819Z,3.28
2022-08-25T04:08:42.410Z,3.28
2022-08-25T04:11:20.433Z,3.70
2022-08-25T04:13:51.944Z,3.80
2022-08-25T04:16:26.706Z,3.80
2022-08-25T04:18:58.559Z,3.83
2022-08-25T04:21:30.085Z,4.40
2022-08-25T04:24:00.999Z,4.40
2022-08-25T04:26:39.027Z,4.03
2022-08-25T04:29:11.955Z,3.92
2022-08-25T04:31:46.994Z,4.07
2022-08-25T04:34:29.890Z,4.18
2022-08-25T04:37:03.184Z,5.68
2022-08-25T04:39:34.736Z,5.90
2022-08-25T04:42:08.662Z,4.55
2022-08-25T04:44:38.906Z,5.63
2022-08-25T04:47:10.284Z,4.82
2022-08-25T04:49:43.609Z,4.28
2022-08-25T04:52:14.652Z,4.30
2022-08-25T04:54:47.489Z,4.00
2022-08-25T04:57:20.219Z,4.03
2022-08-25T04:59:50.894Z,3.85
2022-08-25T05:02:21.275Z,3.53
2022-08-25T05:04:51.678Z,4.10
2022-08-25T05:07:21.914Z,3.65
2022-08-25T05:09:52.046Z,3.25
2022-08-25T05:12:27.118Z,2.88
2022-08-25T05:15:19.499Z,3.28
2022-08-25T05:17:52.672Z,3.08
2022-08-25T05:20:27.438Z,3.00
2022-08-25T05:23:03.398Z,2.88
2022-08-25T05:25:33.772Z,3.08
2022-08-25T05:28:10.536Z,3.08
2022-08-25T05:30:42.228Z,3.15
2022-08-25T05:33:14.283Z,3.20
2022-08-25T05:35:45.079Z,3.00
2022-08-25T05:38:15.737Z,3.13
2022-08-25T05:40:46.955Z,2.78
2022-08-25T05:43:19.869Z,2.97
2022-08-25T05:45:50.531Z,3.20
2022-08-25T05:48:20.780Z,3.20
2022-08-25T05:50:55.545Z,2.53
2022-08-25T05:53:26.769Z,3.10
2022-08-25T05:55:59.759Z,3.00
2022-08-25T05:58:34.227Z,3.00
2022-08-25T06:01:25.056Z,2.90
2022-08-25T06:03:54.391Z,3.30
2022-08-25T06:06:27.097Z,3.25
2022-08-25T06:08:57.305Z,2.97
2022-08-25T06:11:30.208Z,2.83
2022-08-25T06:14:03.113Z,2.60
2022-08-25T06:16:33.376Z,3.20
2022-08-25T06:19:04.204Z,2.90
2022-08-25T06:21:34.751Z,2.92
2022-08-25T06:24:05.270Z,3.10
2022-08-25T06:26:36.726Z,3.10
2022-08-25T06:29:09.560Z,2.90
2022-08-25T06:31:42.632Z,3.10
2022-08-25T06:34:13.988Z,3.47
2022-08-25T06:36:45.179Z,3.67
2022-08-25T06:39:19.781Z,3.13
2022-08-25T06:41:56.470Z,3.45
2022-08-25T06:44:29.913Z,3.47
2022-08-25T06:47:00.325Z,3.30
2022-08-25T06:49:36.210Z,3.20
2022-08-25T06:52:07.278Z,3.35
2022-08-25T06:54:38.016Z,3.58
2022-08-25T06:57:09.555Z,3.25
2022-08-25T06:59:42.556Z,2.83
2022-08-25T07:02:13.505Z,3.38
2022-08-25T07:04:46.294Z,3.28
2022-08-25T07:07:24.181Z,3.10
2022-08-25T07:09:54.454Z,3.25
2022-08-25T07:12:25.607Z,3.13
2022-08-25T07:15:17.189Z,3.17
2022-08-25T07:17:49.036Z,2.85
2022-08-25T07:20:20.853Z,3.13
2022-08-25T07:22:52.392Z,3.35
2022-08-25T07:25:22.833Z,2.92
2022-08-25T07:27:58.215Z,3.20
2022-08-25T07:30:32.192Z,2.97
2022-08-25T07:33:05.908Z,2.92
2022-08-25T07:35:37.757Z,3.08
2022-08-25T07:38:12.594Z,2.90
2022-08-25T07:40:43.769Z,3.15
2022-08-25T07:43:16.053Z,3.25
2022-08-25T07:45:49.504Z,3.08
2022-08-25T07:48:21.646Z,3.22
2022-08-25T07:50:52.536Z,3.10
2022-08-25T07:53:22.870Z,3.20
2022-08-25T07:55:53.556Z,3.17
2022-08-25T07:58:24.216Z,3.05
2022-08-25T08:00:57.553Z,3.13
2022-08-25T08:03:45.243Z,3.15
2022-08-25T08:06:19.676Z,3.17
2022-08-25T08:08:54.621Z,3.38
2022-08-25T08:11:31.819Z,3.00
2022-08-25T08:14:03.822Z,3.28
2022-08-25T08:16:37.663Z,3.00
2022-08-25T08:19:10.126Z,3.13
2022-08-25T08:21:42.578Z,3.42
2022-08-25T08:24:25.067Z,2.95
2022-08-25T08:27:03.673Z,3.05
2022-08-25T08:29:34.233Z,3.30
2022-08-25T08:32:10.958Z,3.30
2022-08-25T08:34:41.633Z,3.10
2022-08-25T08:37:12.788Z,3.13
2022-08-25T08:39:43.729Z,3.13
2022-08-25T08:42:37.588Z,3.15
2022-08-25T08:45:43.184Z,2.90
2022-08-25T08:48:47.322Z,2.92
2022-08-25T08:51:26.522Z,3.25
2022-08-25T08:54:15.190Z,3.10
2022-08-25T08:56:53.512Z,2.78
2022-08-25T08:59:30.860Z,3.00
2022-08-25T09:02:06.301Z,3.53
2022-08-25T09:04:52.500Z,3.40
2022-08-25T09:07:30.348Z,3.20
2022-08-25T09:10:04.433Z,3.03
2022-08-25T09:12:47.988Z,3.20
2022-08-25T09:15:57.556Z,2.80
2022-08-25T09:18:51.216Z,3.35
2022-08-25T09:21:37.297Z,3.25
2022-08-25T09:24:38.782Z,2.88
2022-08-25T09:27:27.241Z,3.05
2022-08-25T09:30:07.771Z,3.00
2022-08-25T09:32:50.389Z,2.95
2022-08-25T09:35:28.230Z,2.90
2022-08-25T09:38:05.506Z,3.40
2022-08-25T09:40:43.320Z,3.40
2022-08-25T09:43:26.330Z,3.10
2022-08-25T09:46:08.685Z,2.90
2022-08-25T09:48:55.901Z,3.03
2022-08-25T09:51:42.365Z,3.17
2022-08-25T09:54:34.041Z,3.00
2022-08-25T09:57:33.924Z,3.17
2022-08-25T10:00:20.055Z,3.08
2022-08-25T10:03:09.528Z,3.15
2022-08-25T10:06:00.143Z,3.00
2022-08-25T10:08:39.525Z,2.95
2022-08-25T10:11:16.084Z,3.22
2022-08-25T10:13:52.113Z,2.97
2022-08-25T10:16:32.244Z,3.25
2022-08-25T10:19:26.232Z,2.92
2022-08-25T10:22:11.121Z,3.08
2022-08-25T10:24:46.549Z,3.15
2022-08-25T10:27:33.987Z,3.35
2022-08-25T10:30:22.984Z,3.47
2022-08-25T10:33:18.115Z,3.40
2022-08-25T10:36:02.288Z,2.72
2022-08-25T10:38:43.193Z,3.20
2022-08-25T10:41:44.028Z,2.97
2022-08-25T10:44:54.117Z,3.30
2022-08-25T10:48:00.483Z,3.25
2022-08-25T10:50:45.576Z,3.15
2022-08-25T10:53:31.538Z,3.25
2022-08-25T10:56:12.587Z,3.00
2022-08-25T10:59:33.528Z,2.90
2022-08-25T11:02:41.385Z,2.65
2022-08-25T11:05:24.712Z,2.80
2022-08-25T11:08:15.522Z,2.75
2022-08-25T11:10:53.940Z,2.60
2022-08-25T11:13:39.975Z,2.83
2022-08-25T11:16:19.894Z,2.75
2022-08-25T11:19:22.115Z,2.90
2022-08-25T11:22:03.191Z,2.97
2022-08-25T11:24:48.271Z,3.33
2022-08-25T11:27:25.589Z,2.50
2022-08-25T11:30:08.549Z,2.78
2022-08-25T11:32:47.215Z,2.80
2022-08-25T11:35:22.625Z,3.20
2022-08-25T11:38:22.140Z,3.00
2022-08-25T11:41:11.084Z,2.80
2022-08-25T11:44:12.726Z,2.20
2022-08-25T11:47:03.545Z,2.53
2022-08-25T11:50:04.134Z,2.72
2022-08-25T11:53:06.500Z,2.80
2022-08-25T11:55:56.130Z,2.15
2022-08-25T11:58:55.859Z,3.08
2022-08-25T12:02:11.695Z,3.10
2022-08-25T12:04:45.686Z,3.00
2022-08-25T12:07:33.653Z,2.65
2022-08-25T12:10:28.880Z,2.70
2022-08-25T12:13:10.381Z,2.60
2022-08-25T12:16:02.428Z,2.90
2022-08-25T12:18:50.292Z,2.28
2022-08-25T12:21:40.487Z,2.60
2022-08-25T12:24:21.020Z,2.55
2022-08-25T12:27:00.956Z,2.25
2022-08-25T12:29:43.586Z,2.53
2022-08-25T12:32:56.751Z,2.53
2022-08-25T12:35:35.407Z,2.85
2022-08-25T12:38:11.722Z,2.40
2022-08-25T12:41:05.858Z,2.30
2022-08-25T12:43:42.325Z,1.95
2022-08-25T12:46:40.647Z,2.40
2022-08-25T12:49:36.674Z,2.30
2022-08-25T12:52:14.133Z,2.40
2022-08-25T12:55:00.432Z,2.35
2022-08-25T12:57:47.628Z,2.50
2022-08-25T13:03:44.841Z,2.53
2022-08-25T13:06:47.459Z,2.50
2022-08-25T13:10:01.883Z,2.33
2022-08-25T13:12:44.897Z,2.55
2022-08-25T13:15:18.933Z,2.00
2022-08-25T13:17:49.155Z,2.20
2022-08-25T13:20:29.213Z,2.40
2022-08-25T13:23:06.522Z,2.20
2022-08-25T13:25:41.495Z,2.13
2022-08-25T13:28:27.728Z,2.40
2022-08-25T13:31:05.876Z,2.40
2022-08-25T13:33:37.700Z,2.88
2022-08-25T13:36:32.914Z,2.83
2022-08-25T13:39:19.924Z,2.60
2022-08-25T13:42:16.625Z,2.67
2022-08-25T13:44:53.986Z,2.70
2022-08-25T13:47:45.360Z,3.25
2022-08-25T13:50:32.310Z,2.92
2022-08-25T13:53:11.251Z,3.17
2022-08-25T13:55:52.493Z,3.25
2022-08-25T13:58:38.911Z,3.03
2022-08-25T14:01:47.804Z,3.13
2022-08-25T14:04:34.989Z,2.45
2022-08-25T14:07:33.749Z,2.53
2022-08-25T14:10:11.455Z,3.13
2022-08-25T14:12:46.487Z,2.58
2022-08-25T14:15:33.984Z,2.80
2022-08-25T14:18:16.323Z,3.00
2022-08-25T14:20:52.140Z,2.70
2022-08-25T14:23:28.582Z,3.08
2022-08-25T14:26:01.081Z,2.45
2022-08-25T14:28:34.107Z,2.70
2022-08-25T14:31:10.170Z,2.80
2022-08-25T14:33:53.115Z,2.90
2022-08-25T14:36:23.763Z,2.90
2022-08-25T14:38:55.257Z,3.20
2022-08-25T14:41:27.131Z,2.63
2022-08-25T14:43:57.374Z,2.70
2022-08-25T14:46:32.165Z,2.95
2022-08-25T14:49:10.015Z,2.78
2022-08-25T14:51:44.151Z,2.75
2022-08-25T14:54:18.771Z,3.28
2022-08-25T14:56:49.966Z,3.05
2022-08-25T14:59:20.228Z,3.00
2022-08-25T15:01:50.560Z,3.50
2022-08-25T15:04:28.309Z,3.03
2022-08-25T15:07:24.372Z,2.90
2022-08-25T15:09:51.987Z,3.10
2022-08-25T15:12:45.939Z,2.40
2022-08-25T15:15:15.195Z,3.00
2022-08-25T15:17:50.388Z,2.95
2022-08-25T15:20:23.577Z,3.10
2022-08-25T15:22:54.895Z,3.00
2022-08-25T15:25:25.410Z,3.15
2022-08-25T15:27:56.005Z,2.90
2022-08-25T15:30:30.969Z,3.08
2022-08-25T15:33:05.571Z,3.00
2022-08-25T15:35:38.854Z,3.20
2022-08-25T15:38:10.085Z,3.10
2022-08-25T15:40:41.444Z,3.10
2022-08-25T15:43:12.510Z,2.90
2022-08-25T15:45:50.925Z,3.03
2022-08-25T15:48:21.392Z,3.03
2022-08-25T15:51:01.883Z,3.10
2022-08-25T15:53:34.718Z,2.80
2022-08-25T15:56:08.944Z,2.97
2022-08-25T15:58:39.537Z,3.65
2022-08-25T16:01:26.151Z,3.40
2022-08-25T16:03:57.740Z,3.03
2022-08-25T16:06:30.831Z,3.17
2022-08-25T16:09:03.596Z,2.75
2022-08-25T16:11:38.746Z,2.90
2022-08-25T16:14:09.615Z,2.90
2022-08-25T16:16:40.049Z,3.22
2022-08-25T16:19:11.596Z,3.03
2022-08-25T16:21:47.446Z,2.90
2022-08-25T16:24:20.806Z,3.25
2022-08-25T16:26:51.794Z,4.13
2022-08-25T16:29:22.890Z,2.70
2022-08-25T16:31:55.217Z,2.83
2022-08-25T16:34:30.805Z,3.25
2022-08-25T16:37:04.872Z,2.88
2022-08-25T16:39:36.691Z,2.90
2022-08-25T16:42:10.623Z,3.10
2022-08-25T16:44:41.302Z,3.10
2022-08-25T16:47:13.950Z,3.28
2022-08-25T16:49:46.352Z,3.10
2022-08-25T16:52:31.894Z,3.03
2022-08-25T16:55:17.531Z,2.80
2022-08-25T16:57:53.475Z,2.83
2022-08-25T17:00:28.121Z,3.40
2022-08-25T17:03:01.204Z,3.20
2022-08-25T17:05:33.973Z,3.10
2022-08-25T17:08:19.652Z,2.92
2022-08-25T17:10:49.902Z,3.05
2022-08-25T17:13:20.169Z,3.00
2022-08-25T17:15:52.283Z,3.22
2022-08-25T17:18:22.951Z,3.65
2022-08-25T17:21:02.403Z,3.25
2022-08-25T17:23:39.432Z,3.63
2022-08-25T17:26:14.596Z,3.72
2022-08-25T17:28:45.868Z,3.33
2022-08-25T17:31:18.202Z,3.45
2022-08-25T17:33:49.630Z,3.45
2022-08-25T17:36:19.928Z,3.78
2022-08-25T17:39:00.373Z,3.53
2022-08-25T17:41:30.573Z,3.40
2022-08-25T17:44:04.320Z,3.83
2022-08-25T17:46:34.983Z,3.70
2022-08-25T17:49:07.953Z,3.53
2022-08-25T17:51:38.262Z,3.50
2022-08-25T17:54:11.408Z,3.50
2022-08-25T17:56:41.632Z,3.60
2022-08-25T17:59:12.332Z,3.67
2022-08-25T18:01:42.762Z,3.63
2022-08-25T18:04:17.408Z,3.63
2022-08-25T18:06:48.480Z,4.15
2022-08-25T18:09:21.574Z,4.13
2022-08-25T18:11:52.495Z,4.75
2022-08-25T18:14:25.521Z,5.20
2022-08-25T18:16:57.003Z,4.95
2022-08-25T18:19:27.274Z,5.05
2022-08-25T18:21:57.851Z,3.92
2022-08-25T18:24:30.768Z,4.43
2022-08-25T18:27:03.411Z,4.72
2022-08-25T18:29:34.099Z,4.65
2022-08-25T18:32:04.616Z,4.93
2022-08-25T18:34:34.987Z,4.50
2022-08-25T18:37:19.981Z,4.93
2022-08-25T18:40:06.793Z,4.70
2022-08-25T18:42:37.590Z,4.50
2022-08-25T18:45:12.441Z,4.43
2022-08-25T18:47:42.855Z,4.20
2022-08-25T18:50:13.355Z,5.50
2022-08-25T18:52:43.729Z,5.35
2022-08-25T18:55:19.399Z,5.32
2022-08-25T18:57:50.115Z,5.38
2022-08-25T19:00:26.430Z,4.70
2022-08-25T19:03:00.582Z,4.75
2022-08-25T19:05:35.231Z,5.18
2022-08-25T19:08:08.927Z,4.60
2022-08-25T19:10:46.236Z,4.55
2022-08-25T19:13:16.556Z,4.82
2022-08-25T19:15:53.917Z,4.80
2022-08-25T19:18:26.236Z,5.35
2022-08-25T19:20:59.943Z,6.25
2022-08-25T19:23:32.858Z,5.20
2022-08-25T19:26:07.704Z,5.28
2022-08-25T19:28:39.298Z,4.82
2022-08-25T19:31:16.028Z,4.68
2022-08-25T19:33:49.131Z,5.10
2022-08-25T19:36:21.369Z,4.60
2022-08-25T19:38:54.636Z,4.72
2022-08-25T19:41:30.677Z,5.00
2022-08-25T19:44:05.289Z,4.90
2022-08-25T19:46:40.146Z,4.95
2022-08-25T19:49:17.289Z,4.93
2022-08-25T19:51:51.782Z,5.20
2022-08-25T19:54:27.638Z,4.95
2022-08-25T19:57:01.225Z,5.65
2022-08-25T19:59:43.253Z,5.20
2022-08-25T20:02:17.643Z,5.07
2022-08-25T20:04:50.761Z,4.88
2022-08-25T20:07:23.999Z,5.30
2022-08-25T20:09:57.746Z,5.10
2022-08-25T20:12:32.971Z,5.40
2022-08-25T20:15:07.594Z,4.78
2022-08-25T20:17:38.147Z,5.53
2022-08-25T20:20:19.549Z,5.72
2022-08-25T20:22:50.013Z,5.32
2022-08-25T20:25:23.997Z,5.57
2022-08-25T20:27:59.285Z,5.74
2022-08-25T20:30:32.533Z,5.25
2022-08-25T20:33:05.589Z,5.35
2022-08-25T20:35:38.679Z,5.57
2022-08-25T20:38:09.707Z,5.75
2022-08-25T20:40:44.443Z,5.72
2022-08-25T20:43:17.934Z,5.30
2022-08-25T20:45:51.218Z,5.60
2022-08-25T20:48:21.444Z,5.15
2022-08-25T20:50:54.320Z,5.35
2022-08-25T20:53:29.171Z,5.57
2022-08-25T20:56:00.483Z,5.65
2022-08-25T20:58:33.577Z,6.15
2022-08-25T21:01:04.235Z,5.25
2022-08-25T21:03:34.425Z,5.15
2022-08-25T21:06:10.255Z,5.28
2022-08-25T21:08:48.123Z,5.50
2022-08-25T21:11:22.056Z,5.18
2022-08-25T21:13:55.017Z,5.50
2022-08-25T21:16:25.933Z,5.43
2022-08-25T21:18:56.684Z,5.22
2022-08-25T21:21:34.934Z,5.57
2022-08-25T21:24:09.842Z,5.45
2022-08-25T21:26:47.669Z,5.55
2022-08-25T21:29:28.391Z,5.55
2022-08-25T21:32:00.292Z,5.80
2022-08-25T21:34:31.959Z,5.80
2022-08-25T21:37:02.451Z,5.38
2022-08-25T21:39:33.208Z,5.78
2022-08-25T21:42:13.903Z,5.38
2022-08-25T21:44:46.644Z,5.72
2022-08-25T21:47:20.981Z,6.40
2022-08-25T21:49:51.994Z,5.60
2022-08-25T21:52:22.286Z,5.40
2022-08-25T21:54:55.201Z,5.63
2022-08-25T21:57:27.017Z,5.60
2022-08-25T21:59:59.822Z,5.65
2022-08-25T22:02:31.495Z,5.68
2022-08-25T22:05:02.304Z,5.50
2022-08-25T22:07:34.289Z,5.85
2022-08-25T22:10:05.497Z,6.10
2022-08-25T22:12:36.339Z,5.38
2022-08-25T22:15:10.827Z,5.85
2022-08-25T22:17:45.013Z,5.50
2022-08-25T22:20:20.681Z,5.80
2022-08-25T22:22:50.977Z,6.15
2022-08-25T22:25:23.555Z,5.60
2022-08-25T22:27:57.121Z,5.30
2022-08-25T22:30:30.538Z,5.53
2022-08-25T22:33:01.501Z,5.63
2022-08-25T22:35:38.323Z,5.55
2022-08-25T22:38:12.371Z,5.43
2022-08-25T22:40:43.771Z,5.80
2022-08-25T22:43:14.566Z,5.72
2022-08-25T22:45:47.351Z,5.95
2022-08-25T22:48:17.767Z,6.57
2022-08-25T22:50:49.056Z,6.10
2022-08-25T22:53:19.191Z,5.30
2022-08-25T22:55:49.408Z,5.72
2022-08-25T22:58:22.390Z,6.28
2022-08-25T23:00:58.226Z,6.22
2022-08-25T23:03:29.363Z,6.25
2022-08-25T23:06:00.783Z,6.00
2022-08-25T23:08:39.307Z,6.40
2022-08-25T23:11:13.528Z,6.43
2022-08-25T23:13:44.392Z,6.13
2022-08-25T23:16:17.617Z,5.68
2022-08-25T23:18:49.940Z,6.43
2022-08-25T23:21:38.048Z,5.57
2022-08-25T23:24:12.996Z,5.75
2022-08-25T23:26:45.282Z,5.65
2022-08-25T23:29:23.524Z,5.60
2022-08-25T23:31:59.153Z,4.78
2022-08-25T23:34:30.507Z,5.13
2022-08-25T23:37:04.220Z,5.00
2022-08-25T23:39:34.408Z,5.13
2022-08-25T23:42:10.716Z,5.65
2022-08-25T23:44:41.067Z,5.80
2022-08-25T23:47:13.803Z,6.43
2022-08-25T23:49:43.935Z,7.72
2022-08-25T23:52:17.834Z,9.43
2022-08-25T23:54:50.641Z,11.13
2022-08-25T23:57:20.729Z,12.15
2022-08-25T23:59:51.944Z,13.50
